createdAt,value
2022-08-05T00:00:15.994Z,25.15
2022-08-05T00:02:50.476Z,25.06
2022-08-05T00:06:02.744Z,24.95
2022-08-05T00:08:05.151Z,24.85
2022-08-05T00:10:46.315Z,24.78
2022-08-05T00:13:18.536Z,24.72
2022-08-05T00:15:56.135Z,24.67
2022-08-05T00:18:26.918Z,24.63
2022-08-05T00:20:56.081Z,24.61
2022-08-05T00:23:44.267Z,24.60
2022-08-05T00:26:10.632Z,24.57
2022-08-05T00:28:37.445Z,24.62
2022-08-05T00:31:07.644Z,24.67
2022-08-05T00:34:54.742Z,24.61
2022-08-05T00:37:13.280Z,24.57
2022-08-05T00:39:13.752Z,24.43
2022-08-05T00:41:52.128Z,24.32
2022-08-05T00:44:30.981Z,24.26
2022-08-05T00:47:04.059Z,24.23
2022-08-05T00:49:44.739Z,24.18
2022-08-05T00:52:18.548Z,24.10
2022-08-05T00:54:55.273Z,24.06
2022-08-05T00:57:25.180Z,24.12
2022-08-05T00:59:58.236Z,24.11
2022-08-05T01:02:24.947Z,24.13
2022-08-05T01:04:51.705Z,24.14
2022-08-05T01:07:18.488Z,24.15
2022-08-05T01:09:45.219Z,24.14
2022-08-05T01:12:25.170Z,24.10
2022-08-05T01:15:03.992Z,24.07
2022-08-05T01:17:40.110Z,24.10
2022-08-05T01:20:45.743Z,24.17
2022-08-05T01:23:34.922Z,24.23
2022-08-05T01:26:27.047Z,24.20
2022-08-05T01:29:22.984Z,24.23
2022-08-05T01:31:54.347Z,24.21
2022-08-05T01:34:27.136Z,24.23
2022-08-05T01:37:09.546Z,24.18
2022-08-05T01:39:48.949Z,24.21
2022-08-05T01:42:20.021Z,24.22
2022-08-05T01:44:54.331Z,24.22
2022-08-05T01:47:23.851Z,24.17
2022-08-05T01:50:01.514Z,24.16
2022-08-05T01:52:30.553Z,24.19
2022-08-05T01:55:04.432Z,24.21
2022-08-05T01:58:11.253Z,24.22
2022-08-05T02:00:21.526Z,24.22
2022-08-05T02:03:04.086Z,24.19
2022-08-05T02:05:35.969Z,24.06
2022-08-05T02:08:04.769Z,23.81
2022-08-05T02:10:36.839Z,23.62
2022-08-05T02:13:15.851Z,23.45
2022-08-05T02:16:07.384Z,23.33
2022-08-05T02:19:07.209Z,23.17
2022-08-05T02:21:42.953Z,23.05
2022-08-05T02:24:18.191Z,22.95
2022-08-05T02:27:10.053Z,22.86
2022-08-05T02:29:59.174Z,22.86
2022-08-05T02:32:31.749Z,22.81
2022-08-05T02:35:13.606Z,22.83
2022-08-05T02:37:47.642Z,22.85
2022-08-05T02:40:17.059Z,22.79
2022-08-05T02:42:53.094Z,22.69
2022-08-05T02:45:25.642Z,22.66
2022-08-05T02:48:06.452Z,22.69
2022-08-05T02:50:35.029Z,22.70
2022-08-05T02:53:02.588Z,22.68
2022-08-05T02:55:54.885Z,22.66
2022-08-05T02:58:20.821Z,22.70
2022-08-05T03:00:48.997Z,22.77
2022-08-05T03:03:19.966Z,22.84
2022-08-05T03:06:55.043Z,22.91
2022-08-05T03:08:42.346Z,23.01
2022-08-05T03:11:54.424Z,23.04
2022-08-05T03:14:13.225Z,23.08
2022-08-05T03:16:40.586Z,23.16
2022-08-05T03:19:12.749Z,23.19
2022-08-05T03:21:48.783Z,23.16
2022-08-05T03:24:23.620Z,23.21
2022-08-05T03:26:58.087Z,23.24
2022-08-05T03:29:24.756Z,23.26
2022-08-05T03:32:11.926Z,23.27
2022-08-05T03:34:42.560Z,23.27
2022-08-05T03:37:18.374Z,23.29
2022-08-05T03:40:08.606Z,23.25
2022-08-05T03:42:41.818Z,23.29
2022-08-05T03:45:21.672Z,23.28
2022-08-05T03:47:51.374Z,23.26
2022-08-05T03:50:18.281Z,23.25
2022-08-05T03:55:52.580Z,23.19
2022-08-05T03:56:30.586Z,23.25
2022-08-05T03:59:04.054Z,23.17
2022-08-05T04:01:36.549Z,23.11
2022-08-05T04:04:10.296Z,23.03
2022-08-05T04:06:38.438Z,23.01
2022-08-05T04:09:15.482Z,23.01
2022-08-05T04:11:50.691Z,23.00
2022-08-05T04:14:19.636Z,22.97
2022-08-05T04:16:58.859Z,22.95
2022-08-05T04:19:25.659Z,22.94
2022-08-05T04:22:09.508Z,22.90
2022-08-05T04:24:52.971Z,22.86
2022-08-05T04:27:41.625Z,22.84
2022-08-05T04:30:08.953Z,22.82
2022-08-05T04:32:36.553Z,22.81
2022-08-05T04:35:04.777Z,22.78
2022-08-05T04:38:02.603Z,22.77
2022-08-05T04:40:19.833Z,22.77
2022-08-05T04:42:46.550Z,22.75
2022-08-05T04:45:14.214Z,22.74
2022-08-05T04:48:10.316Z,22.72
2022-08-05T04:51:03.365Z,22.72
2022-08-05T04:53:35.765Z,22.74
2022-08-05T04:56:33.873Z,22.76
2022-08-05T04:58:50.183Z,22.78
2022-08-05T05:01:33.653Z,22.79
2022-08-05T05:04:04.806Z,22.80
2022-08-05T05:06:40.240Z,22.80
2022-08-05T05:09:14.106Z,22.81
2022-08-05T05:11:54.445Z,22.80
2022-08-05T05:14:27.708Z,22.92
2022-08-05T05:17:01.608Z,22.99
2022-08-05T05:19:37.240Z,23.01
2022-08-05T05:22:24.364Z,23.08
2022-08-05T05:24:59.784Z,23.08
2022-08-05T05:27:44.434Z,23.06
2022-08-05T05:30:15.383Z,23.08
2022-08-05T05:32:42.529Z,23.07
2022-08-05T05:35:09.556Z,23.08
2022-08-05T05:37:59.365Z,23.11
2022-08-05T05:40:28.767Z,23.11
2022-08-05T05:42:57.087Z,23.12
2022-08-05T05:45:24.747Z,23.15
2022-08-05T05:48:07.831Z,23.18
2022-08-05T05:50:42.534Z,23.15
2022-08-05T05:53:21.902Z,23.23
2022-08-05T05:55:52.451Z,23.12
2022-08-05T05:58:31.621Z,23.32
2022-08-05T06:01:12.776Z,23.31
2022-08-05T06:04:00.949Z,23.31
2022-08-05T06:06:30.831Z,23.29
2022-08-05T06:08:58.435Z,23.26
2022-08-05T06:11:25.165Z,23.29
2022-08-05T06:13:54.021Z,23.25
2022-08-05T06:16:29.590Z,23.25
2022-08-05T06:19:01.187Z,23.28
2022-08-05T06:21:36.911Z,23.30
2022-08-05T06:24:11.959Z,23.35
2022-08-05T06:26:51.508Z,23.40
2022-08-05T06:29:25.504Z,23.45
2022-08-05T06:32:21.446Z,23.53
2022-08-05T06:34:57.240Z,23.51
2022-08-05T06:37:57.480Z,23.59
2022-08-05T06:40:14.123Z,23.73
2022-08-05T06:42:52.076Z,23.87
2022-08-05T06:45:44.034Z,24.00
2022-08-05T06:48:47.090Z,24.15
2022-08-05T06:50:53.847Z,24.24
2022-08-05T06:53:27.786Z,24.32
2022-08-05T06:55:59.864Z,24.48
2022-08-05T06:58:35.019Z,24.62
2022-08-05T07:01:06.010Z,24.79
2022-08-05T07:03:33.652Z,24.95
2022-08-05T07:06:06.075Z,25.11
2022-08-05T07:08:41.949Z,25.22
2022-08-05T07:11:15.557Z,25.27
2022-08-05T07:14:01.615Z,25.43
2022-08-05T07:17:56.940Z,25.53
2022-08-05T07:22:28.699Z,25.84
2022-08-05T07:25:23.831Z,26.01
2022-08-05T07:28:01.473Z,26.08
2022-08-05T07:30:34.694Z,26.02
2022-08-05T07:33:09.868Z,25.85
2022-08-05T07:36:03.643Z,25.62
2022-08-05T07:38:32.483Z,25.52
2022-08-05T07:41:16.841Z,25.51
2022-08-05T07:43:49.486Z,25.42
2022-08-05T07:46:25.517Z,25.43
2022-08-05T07:49:01.587Z,25.54
2022-08-05T07:51:40.429Z,25.63
2022-08-05T07:54:09.786Z,25.76
2022-08-05T07:57:02.643Z,25.89
2022-08-05T07:59:38.742Z,26.07
2022-08-05T08:02:15.624Z,26.13
2022-08-05T08:04:48.566Z,26.12
2022-08-05T08:07:17.759Z,26.19
2022-08-05T08:09:45.720Z,26.25
2022-08-05T08:12:37.547Z,26.32
2022-08-05T08:15:02.084Z,26.45
2022-08-05T08:17:30.251Z,26.57
2022-08-05T08:20:10.255Z,26.72
2022-08-05T08:22:43.708Z,26.87
2022-08-05T08:25:16.618Z,26.99
2022-08-05T08:27:45.171Z,27.09
2022-08-05T08:30:29.839Z,27.20
2022-08-05T08:33:08.301Z,27.34
2022-08-05T08:35:41.249Z,27.43
2022-08-05T08:38:08.681Z,27.40
2022-08-05T08:40:45.718Z,27.38
2022-08-05T08:45:17.799Z,27.37
2022-08-05T08:46:06.494Z,27.28
2022-08-05T08:49:03.044Z,27.32
2022-08-05T08:52:03.573Z,27.32
2022-08-05T08:54:11.300Z,27.39
2022-08-05T08:56:47.396Z,27.39
2022-08-05T08:59:19.785Z,27.44
2022-08-05T09:01:57.223Z,27.60
2022-08-05T09:04:30.704Z,27.68
2022-08-05T09:06:58.291Z,27.85
2022-08-05T09:09:25.993Z,27.91
2022-08-05T09:12:05.978Z,27.98
2022-08-05T09:14:57.860Z,28.15
2022-08-05T09:17:42.751Z,28.23
2022-08-05T09:20:13.491Z,28.35
2022-08-05T09:23:19.992Z,28.44
2022-08-05T09:26:01.668Z,28.48
2022-08-05T09:28:33.571Z,28.52
2022-08-05T09:31:44.071Z,28.55
2022-08-05T09:33:56.575Z,28.62
2022-08-05T09:36:27.320Z,28.70
2022-08-05T09:39:18.472Z,28.84
2022-08-05T09:42:03.952Z,28.91
2022-08-05T09:44:50.799Z,28.98
2022-08-05T09:47:23.690Z,29.06
2022-08-05T09:50:00.551Z,29.16
2022-08-05T09:52:36.127Z,29.32
2022-08-05T09:55:55.584Z,29.44
2022-08-05T09:57:54.831Z,29.38
2022-08-05T10:00:25.946Z,29.41
2022-08-05T10:02:54.755Z,29.65
2022-08-05T10:05:27.151Z,29.90
2022-08-05T10:08:36.053Z,30.22
2022-08-05T10:10:54.198Z,30.39
2022-08-05T10:13:47.352Z,30.36
2022-08-05T10:16:37.759Z,30.21
2022-08-05T10:19:10.192Z,30.16
2022-08-05T10:21:41.025Z,29.99
2022-08-05T10:24:13.008Z,29.90
2022-08-05T10:26:51.563Z,29.76
2022-08-05T10:29:23.646Z,29.56
2022-08-05T10:32:55.767Z,29.41
2022-08-05T10:35:01.152Z,29.35
2022-08-05T10:37:40.093Z,29.22
2022-08-05T10:40:49.998Z,29.25
2022-08-05T10:43:51.036Z,29.20
2022-08-05T10:46:23.738Z,29.09
2022-08-05T10:49:01.443Z,29.16
2022-08-05T10:51:58.338Z,29.24
2022-08-05T10:55:02.068Z,29.39
2022-08-05T10:57:30.929Z,29.55
2022-08-05T11:00:19.030Z,29.79
2022-08-05T11:03:23.784Z,29.92
2022-08-05T11:06:18.462Z,29.85
2022-08-05T11:09:13.214Z,29.84
2022-08-05T11:11:52.518Z,29.65
2022-08-05T11:18:07.320Z,29.77
2022-08-05T11:20:41.575Z,30.14
2022-08-05T11:23:49.826Z,30.47
2022-08-05T11:26:28.563Z,30.59
2022-08-05T11:29:06.665Z,30.64
2022-08-05T11:31:57.834Z,30.75
2022-08-05T11:34:57.369Z,31.16
2022-08-05T11:38:29.526Z,31.36
2022-08-05T11:41:34.757Z,31.39
2022-08-05T11:44:05.715Z,31.57
2022-08-05T11:47:10.350Z,31.71
2022-08-05T11:49:29.006Z,31.80
2022-08-05T11:52:01.287Z,31.93
2022-08-05T11:54:38.132Z,32.08
2022-08-05T11:57:08.270Z,32.25
2022-08-05T11:59:51.497Z,32.24
2022-08-05T12:02:30.352Z,32.25
2022-08-05T12:04:59.885Z,32.36
2022-08-05T12:08:09.529Z,32.59
2022-08-05T12:10:21.417Z,32.81
2022-08-05T12:13:00.285Z,32.97
2022-08-05T12:15:33.965Z,33.05
2022-08-05T12:18:10.804Z,33.23
2022-08-05T12:20:39.216Z,33.40
2022-08-05T12:23:12.672Z,33.65
2022-08-05T12:26:09.146Z,33.90
2022-08-05T12:28:38.992Z,34.16
2022-08-05T12:31:05.881Z,34.42
2022-08-05T12:33:36.075Z,34.56
2022-08-05T12:36:08.638Z,34.44
2022-08-05T12:38:41.178Z,34.34
2022-08-05T12:41:13.146Z,34.40
2022-08-05T12:43:58.791Z,34.59
2022-08-05T12:46:32.915Z,34.68
2022-08-05T12:49:18.900Z,34.87
2022-08-05T12:52:12.016Z,34.98
2022-08-05T12:54:44.693Z,35.10
2022-08-05T12:57:13.174Z,35.22
2022-08-05T13:01:57.016Z,35.28
2022-08-05T13:02:40.144Z,35.21
2022-08-05T13:05:08.401Z,35.04
2022-08-05T13:07:59.230Z,34.73
2022-08-05T13:10:27.039Z,34.64
2022-08-05T13:12:57.885Z,34.64
2022-08-05T13:15:41.679Z,34.62
2022-08-05T13:18:18.799Z,34.43
2022-08-05T13:20:49.370Z,34.37
2022-08-05T13:23:22.272Z,34.15
2022-08-05T13:25:51.830Z,34.20
2022-08-05T13:28:27.306Z,34.30
2022-08-05T13:30:53.976Z,34.56
2022-08-05T13:34:25.160Z,34.63
2022-08-05T13:36:09.105Z,34.72
2022-08-05T13:38:42.325Z,34.96
2022-08-05T13:41:11.266Z,35.19
2022-08-05T13:43:44.852Z,35.26
2022-08-05T13:46:13.001Z,35.42
2022-08-05T13:48:58.261Z,35.41
2022-08-05T13:51:29.595Z,35.35
2022-08-05T13:54:03.549Z,35.17
2022-08-05T13:56:44.871Z,35.12
2022-08-05T13:59:20.107Z,35.42
2022-08-05T14:01:57.696Z,35.60
2022-08-05T14:04:51.318Z,35.92
2022-08-05T14:07:56.477Z,36.00
2022-08-05T14:10:11.720Z,35.85
2022-08-05T14:12:38.808Z,35.91
2022-08-05T14:16:05.641Z,36.11
2022-08-05T14:17:55.076Z,36.18
2022-08-05T14:20:27.302Z,36.25
2022-08-05T14:22:54.705Z,36.12
2022-08-05T14:25:22.688Z,36.20
2022-08-05T14:27:55.027Z,36.26
2022-08-05T14:30:21.889Z,36.48
2022-08-05T14:32:49.121Z,36.58
2022-08-05T14:35:20.639Z,36.74
2022-08-05T14:37:53.522Z,36.83
2022-08-05T14:40:24.541Z,36.84
2022-08-05T14:42:51.887Z,36.98
2022-08-05T14:45:19.183Z,37.05
2022-08-05T14:48:03.961Z,36.82
2022-08-05T14:50:33.377Z,36.31
2022-08-05T14:53:06.824Z,35.87
2022-08-05T14:55:39.556Z,35.85
2022-08-05T14:58:11.638Z,36.08
2022-08-05T15:00:58.709Z,35.86
2022-08-05T15:03:33.696Z,35.58
2022-08-05T15:06:12.664Z,35.46
2022-08-05T15:08:59.579Z,35.09
2022-08-05T15:11:51.275Z,34.67
2022-08-05T15:14:33.158Z,34.73
2022-08-05T15:17:00.950Z,34.59
2022-08-05T15:19:27.643Z,34.30
2022-08-05T15:21:54.530Z,34.00
2022-08-05T15:24:27.152Z,33.76
2022-08-05T15:26:53.830Z,33.52
2022-08-05T15:29:22.913Z,33.28
2022-08-05T15:31:52.748Z,32.92
2022-08-05T15:34:32.567Z,32.51
2022-08-05T15:37:04.870Z,32.18
2022-08-05T15:41:00.920Z,31.89
2022-08-05T15:42:53.749Z,31.57
2022-08-05T15:45:10.649Z,31.35
2022-08-05T15:47:42.175Z,31.18
2022-08-05T15:50:15.514Z,31.00
2022-08-05T15:52:53.517Z,30.80
2022-08-05T15:55:25.034Z,30.67
2022-08-05T15:58:16.561Z,30.58
2022-08-05T16:00:50.762Z,30.52
2022-08-05T16:03:30.375Z,30.52
2022-08-05T16:05:59.510Z,30.51
2022-08-05T16:08:30.751Z,30.48
2022-08-05T16:10:58.606Z,30.45
2022-08-05T16:13:34.229Z,30.41
2022-08-05T16:16:05.006Z,30.35
2022-08-05T16:18:33.118Z,30.35
2022-08-05T16:21:04.007Z,30.31
2022-08-05T16:23:33.024Z,30.28
2022-08-05T16:26:18.667Z,30.24
2022-08-05T16:28:52.705Z,30.23
2022-08-05T16:31:21.605Z,30.23
2022-08-05T16:33:49.001Z,30.19
2022-08-05T16:36:20.131Z,30.08
2022-08-05T16:38:54.794Z,30.02
2022-08-05T16:42:15.015Z,29.96
2022-08-05T16:44:09.868Z,29.93
2022-08-05T16:46:38.864Z,29.87
2022-08-05T16:49:09.083Z,29.83
2022-08-05T16:51:42.669Z,29.78
2022-08-05T16:54:24.837Z,29.74
2022-08-05T16:56:52.569Z,29.65
2022-08-05T16:59:19.161Z,29.60
2022-08-05T17:01:54.695Z,29.56
2022-08-05T17:04:26.301Z,29.53
2022-08-05T17:06:55.386Z,29.47
2022-08-05T17:09:23.189Z,29.36
2022-08-05T17:11:54.642Z,29.31
2022-08-05T17:14:37.307Z,29.27
2022-08-05T17:17:14.560Z,29.21
2022-08-05T17:19:45.387Z,29.18
2022-08-05T17:22:24.878Z,29.11
2022-08-05T17:24:57.562Z,29.04
2022-08-05T17:27:27.281Z,29.01
2022-08-05T17:30:02.506Z,29.00
2022-08-05T17:32:29.796Z,29.11
2022-08-05T17:34:58.283Z,29.22
2022-08-05T17:37:39.648Z,29.30
2022-08-05T17:40:12.208Z,29.27
2022-08-05T17:42:41.364Z,29.13
2022-08-05T17:45:20.625Z,29.01
2022-08-05T17:47:52.939Z,28.92
2022-08-05T17:50:28.605Z,28.88
2022-08-05T17:53:02.185Z,28.78
2022-08-05T17:55:37.976Z,28.64
2022-08-05T17:58:09.861Z,28.68
2022-08-05T18:00:45.395Z,28.94
2022-08-05T18:03:33.242Z,28.98
2022-08-05T18:06:06.097Z,28.66
2022-08-05T18:08:38.356Z,28.51
2022-08-05T18:11:07.565Z,28.29
2022-08-05T18:13:43.999Z,28.12
2022-08-05T18:16:13.454Z,27.89
2022-08-05T18:18:41.273Z,27.70
2022-08-05T18:21:13.062Z,27.59
2022-08-05T18:23:47.089Z,27.43
2022-08-05T18:26:13.961Z,27.25
2022-08-05T18:28:44.631Z,27.07
2022-08-05T18:31:13.302Z,26.90
2022-08-05T18:33:47.130Z,26.75
2022-08-05T18:36:17.480Z,26.67
2022-08-05T18:38:46.131Z,26.58
2022-08-05T18:41:56.361Z,26.52
2022-08-05T18:44:06.295Z,26.43
2022-08-05T18:46:34.594Z,26.36
2022-08-05T18:49:21.446Z,26.28
2022-08-05T18:52:08.618Z,26.11
2022-08-05T18:54:35.812Z,25.99
2022-08-05T18:57:02.993Z,25.98
2022-08-05T18:59:44.437Z,25.90
2022-08-05T19:02:26.960Z,25.83
2022-08-05T19:05:02.560Z,25.72
2022-08-05T19:07:46.249Z,25.57
2022-08-05T19:10:14.899Z,25.54
2022-08-05T19:12:41.757Z,25.47
2022-08-05T19:15:45.037Z,25.51
2022-08-05T19:17:59.121Z,25.48
2022-08-05T19:20:35.701Z,25.38
2022-08-05T19:23:03.364Z,25.33
2022-08-05T19:25:43.526Z,25.30
2022-08-05T19:28:11.044Z,25.28
2022-08-05T19:30:39.309Z,25.24
2022-08-05T19:33:11.267Z,25.16
2022-08-05T19:35:56.709Z,25.11
2022-08-05T19:38:26.710Z,25.06
2022-08-05T19:40:53.623Z,25.04
2022-08-05T19:44:04.906Z,24.99
2022-08-05T19:46:06.799Z,24.96
2022-08-05T19:48:53.397Z,24.91
2022-08-05T19:52:04.524Z,24.81
2022-08-05T19:54:26.685Z,24.73
2022-08-05T19:56:57.627Z,24.71
2022-08-05T19:59:56.514Z,24.67
2022-08-05T20:02:11.043Z,24.64
2022-08-05T20:04:38.081Z,24.62
2022-08-05T20:07:10.298Z,24.61
2022-08-05T20:09:55.193Z,24.57
2022-08-05T20:12:24.566Z,24.54
2022-08-05T20:14:52.875Z,24.54
2022-08-05T20:17:23.954Z,24.51
2022-08-05T20:19:56.568Z,24.46
2022-08-05T20:22:26.795Z,24.44
2022-08-05T20:24:54.767Z,24.39
2022-08-05T20:27:26.837Z,24.38
2022-08-05T20:29:58.275Z,24.34
2022-08-05T20:32:26.854Z,24.32
2022-08-05T20:34:54.332Z,24.25
2022-08-05T20:38:05.540Z,24.17
2022-08-05T20:40:08.581Z,24.10
2022-08-05T20:42:35.450Z,24.01
2022-08-05T20:45:02.652Z,23.83
2022-08-05T20:47:31.851Z,23.82
2022-08-05T20:49:59.875Z,23.72
2022-08-05T20:52:29.532Z,23.73
2022-08-05T20:54:59.213Z,23.73
2022-08-05T20:57:42.131Z,23.71
2022-08-05T21:00:41.452Z,23.69
2022-08-05T21:03:04.561Z,23.64
2022-08-05T21:05:47.937Z,23.57
2022-08-05T21:08:28.061Z,23.49
2022-08-05T21:11:11.926Z,23.47
2022-08-05T21:13:56.253Z,23.47
2022-08-05T21:16:30.026Z,23.46
2022-08-05T21:19:01.408Z,23.41
2022-08-05T21:21:44.016Z,23.44
2022-08-05T21:24:16.020Z,23.43
2022-08-05T21:26:47.186Z,23.39
2022-08-05T21:29:20.451Z,23.33
2022-08-05T21:31:53.093Z,23.31
2022-08-05T21:34:20.475Z,23.25
2022-08-05T21:36:49.233Z,23.27
2022-08-05T21:39:16.851Z,23.33
2022-08-05T21:41:52.633Z,23.34
2022-08-05T21:44:27.943Z,23.36
2022-08-05T21:46:58.057Z,23.34
2022-08-05T21:49:58.813Z,23.29
2022-08-05T21:52:21.708Z,23.27
2022-08-05T21:54:55.254Z,23.28
2022-08-05T21:57:31.288Z,23.26
2022-08-05T22:00:10.881Z,23.19
2022-08-05T22:02:41.814Z,23.06
2022-08-05T22:05:10.333Z,22.84
2022-08-05T22:07:39.956Z,22.70
2022-08-05T22:10:27.031Z,22.61
2022-08-05T22:12:57.202Z,22.60
2022-08-05T22:16:00.750Z,22.42
2022-08-05T22:18:11.846Z,22.26
2022-08-05T22:20:39.821Z,22.22
2022-08-05T22:23:25.338Z,22.15
2022-08-05T22:26:30.206Z,22.10
2022-08-05T22:28:56.831Z,22.04
2022-08-05T22:31:24.810Z,21.97
2022-08-05T22:34:01.509Z,21.92
2022-08-05T22:36:29.198Z,21.93
2022-08-05T22:38:56.719Z,21.92
2022-08-05T22:42:05.389Z,21.92
2022-08-05T22:44:11.884Z,21.85
2022-08-05T22:46:40.643Z,21.84
2022-08-05T22:49:23.050Z,21.83
2022-08-05T22:52:04.612Z,21.73
2022-08-05T22:54:33.663Z,21.70
2022-08-05T22:57:00.323Z,21.66
2022-08-05T22:59:48.304Z,21.61
2022-08-05T23:02:16.425Z,21.52
2022-08-05T23:04:52.032Z,21.42
2022-08-05T23:07:21.848Z,21.35
2022-08-05T23:09:57.827Z,21.27
2022-08-05T23:12:29.005Z,21.24
2022-08-05T23:15:00.430Z,21.23
2022-08-05T23:17:34.437Z,21.20
2022-08-05T23:20:16.440Z,21.08
2022-08-05T23:22:48.411Z,21.01
2022-08-05T23:25:52.003Z,20.86
2022-08-05T23:28:07.014Z,20.74
2022-08-05T23:30:40.437Z,20.65
2022-08-05T23:33:16.163Z,20.60
2022-08-05T23:35:50.763Z,20.56
2022-08-05T23:38:18.057Z,20.54
2022-08-05T23:40:50.258Z,20.49
2022-08-05T23:43:25.066Z,20.46
2022-08-05T23:46:19.839Z,20.44
2022-08-05T23:49:00.015Z,20.40
2022-08-05T23:51:53.785Z,20.39
2022-08-05T23:54:30.457Z,20.41
2022-08-05T23:57:03.750Z,20.44
